Terminal Aerodrome Forecast
Issued by NWS

Home | Current Version | Previous Version | Text Only | Print | Product List | Glossary On
Versions: 1 2 3 4 5 6 7 8 9 10 11 12 13 14 15 16
565
FTUS43 KJKL 271131
TAFSME
TAF
KSME 271131Z 2712/2812 VRB06KT 6SM -SHRA BR VCTS BKN035CB OVC090
     FM271600 23007KT P6SM VCTS BKN050CB
     FM280000 14004KT 3SM SHRA OVC050
     FM280500 18004KT P6SM VCSH OVC070=

USA.gov is the U.S. government's official web portal to all federal, state and local government web resources and services.